CYIO

Pond Inlet Airport

Pond Inlet, Canada
METAR CYIO 221800Z AUTO 00000KT 8SM -SN OVC021 M05/M07 A2957 RMK SLP020
Observed Flight Rules
Apr-22 @ 18:00 UTC (17 minutes ago) Marginal Visual Flight Rules
Visibility Clouds Conditions
8 miles
  • Overcast at 2,100' AGL
  • Light Snow
Temperatures Readings
Current -5°C / 23°F
Dewpoint -7°C / 19°F
Humidity 86%
Altimeter 29.57" Hg
Pressure 1002 hPa
Elevation 57
METAR CYIO 221800Z AUTO 00000KT 8SM -SN OVC021 M05/M07 A2957 RMK SLP020
Observed Flight Rules
Apr-22 @ 18:00 UTC
(17 minutes ago)
MVFR
Clouds
  • Overcast at 2,100' AGL
Conditions
  • Light Snow
Temperature Dewpoint
-5°C / 23°F -7°C / 19°F
Humidity Altimeter Pressure
86% 29.57" Hg 1002 hPa